Old Ocean, TX

6:49 AM CST on February 10, 2016 (GMT -0600)
Old Ocean | | Change Station
CLOSE
Current Station
Personal Weather Station
Location: Sweeny, TX
Elevation: 52 ft
Nearby Weather Stations

Elev 52 ft 29.09 °N, 95.71 °W | Updated 8 seconds ago

Clear
Clear
38.3 °F
Feels Like 38 °F
N
0.0
Wind Variable Wind from SSW
Gusts 0.0 mph

Today
High -- | Low -- °F
--% Chance of Precip.
Yesterday
High -- | Low -- °F
Precip. -- in
Pressure 30.37 in
Visibility 10.0 miles
Clouds Clear
Windchill 38 °F
Dew Point 38 °F
Humidity 99%
Rainfall 0.00 in
Snow Depth Not available.
7:06 AM 6:08 PM
Waxing Crescent, 5% visible
METAR KBYY 101235Z AUTO 07006KT 10SM CLR 06/01 A3037 RMK AO2 T00620015
Pressure 30.37 in
Visibility 10.0 miles
Clouds Clear
Windchill 38 °F
Dew Point 38 °F
Humidity 99%
Rainfall 0.00 in
Snow Depth Not available.
7:06 AM 6:08 PM
Waxing Crescent, 5% visible
METAR KBYY 101235Z AUTO 07006KT 10SM CLR 06/01 A3037 RMK AO2 T00620015

10-Day Weather Forecast

Almanac

Astronomy

Feb. 10, 2016 Rise Set
Actual Time
Civil Twilight
Nautical Twilight
Astronomical Twilight
Moon
Length of Visible Light
Length of Day
Tomorrow will be .
, % of the Moon is Illuminated

Today's Extremes

State Highs State Lows

Community

WunderPhotos

Upload Photos

1,891,837 photos uploaded!

WunderBlog® & News

Nearby

Air Quality

  Air Quality AQ Index Pollutant
Not available.

Snow Depth

Station Depth Elevation

Earthquake Activity

City Distance Mag. Time & Date
Minimum magnitude displayed is 2.5.

Coastal Water Temperatures

Place Temperature

Stations

Nearby Weather Stations

Station Location Temp. Windchill Dew Point Humidity Wind Precip. Elev Updated Type
                   

Watches & Warnings

There are currently no watches in effect.